Terminal Aerodrome Forecast
Issued by NWS Wilmington, OH

Home | Current Version | Previous Version | Text Only | Print | Product List | Glossary On
Versions: 1 2 3 4 5 6 7 8 9 10 11 12 13 14 15 16 17
000
FTUS41 KILN 020500 RRA
TAFDAY
TAF
KDAY 020544Z 0206/0306 16010KT P6SM BKN250
     FM021100 18012KT P6SM -SHRA OVC050
      TEMPO 0212/0215 5SM -SHRA OVC035
     FM021500 20018G30KT P6SM BKN060
     FM022000 21014G24KT 4SM -SHRA VCTS OVC035CB
      TEMPO 0222/0301 4SM -TSRA OVC025CB
     FM030100 24006KT 3SM SHRA VCTS OVC015CB=

USA.gov is the U.S. government's official web portal to all federal, state and local government web resources and services.